sensor_id;sensor_type;location;lat;lon;timestamp;temperature;humidity
40758;DHT22;26462;47.384;19.218;2022-11-11T00:00:49;7.50;99.90
40758;DHT22;26462;47.384;19.218;2022-11-11T00:03:35;7.40;99.90
40758;DHT22;26462;47.384;19.218;2022-11-11T00:06:21;7.40;99.90
40758;DHT22;26462;47.384;19.218;2022-11-11T00:09:08;7.40;99.90
40758;DHT22;26462;47.384;19.218;2022-11-11T00:11:53;7.30;99.90
40758;DHT22;26462;47.384;19.218;2022-11-11T00:14:39;7.30;99.90
40758;DHT22;26462;47.384;19.218;2022-11-11T00:17:24;7.30;99.90
40758;DHT22;26462;47.384;19.218;2022-11-11T00:20:29;7.30;99.90
40758;DHT22;26462;47.384;19.218;2022-11-11T00:23:34;7.20;99.90
40758;DHT22;26462;47.384;19.218;2022-11-11T00:26:38;7.20;99.90
40758;DHT22;26462;47.384;19.218;2022-11-11T00:29:25;7.20;99.90
40758;DHT22;26462;47.384;19.218;2022-11-11T00:32:10;7.20;99.90
40758;DHT22;26462;47.384;19.218;2022-11-11T00:35:09;7.20;99.90
40758;DHT22;26462;47.384;19.218;2022-11-11T00:38:14;7.10;99.90
40758;DHT22;26462;47.384;19.218;2022-11-11T00:41:23;7.10;99.90
40758;DHT22;26462;47.384;19.218;2022-11-11T00:44:09;7.00;99.90
40758;DHT22;26462;47.384;19.218;2022-11-11T00:46:55;7.00;99.90
40758;DHT22;26462;47.384;19.218;2022-11-11T00:50:00;7.00;99.90
40758;DHT22;26462;47.384;19.218;2022-11-11T00:53:09;6.90;99.90
40758;DHT22;26462;47.384;19.218;2022-11-11T00:55:56;6.90;99.90
40758;DHT22;26462;47.384;19.218;2022-11-11T00:58:42;6.90;99.90
40758;DHT22;26462;47.384;19.218;2022-11-11T01:01:27;6.90;99.90
40758;DHT22;26462;47.384;19.218;2022-11-11T01:04:13;6.90;99.90
40758;DHT22;26462;47.384;19.218;2022-11-11T01:06:59;6.80;99.90
40758;DHT22;26462;47.384;19.218;2022-11-11T01:09:44;6.80;99.90
40758;DHT22;26462;47.384;19.218;2022-11-11T01:12:30;6.80;99.90
40758;DHT22;26462;47.384;19.218;2022-11-11T01:15:15;6.80;99.90
40758;DHT22;26462;47.384;19.218;2022-11-11T01:18:01;6.80;99.90
40758;DHT22;26462;47.384;19.218;2022-11-11T01:20:47;6.80;99.90
40758;DHT22;26462;47.384;19.218;2022-11-11T01:23:36;6.70;99.90
40758;DHT22;26462;47.384;19.218;2022-11-11T01:26:24;6.70;99.90
40758;DHT22;26462;47.384;19.218;2022-11-11T01:29:15;6.70;99.90
40758;DHT22;26462;47.384;19.218;2022-11-11T01:32:00;6.70;99.90
40758;DHT22;26462;47.384;19.218;2022-11-11T01:34:46;6.70;99.90
40758;DHT22;26462;47.384;19.218;2022-11-11T01:37:33;6.70;99.90
40758;DHT22;26462;47.384;19.218;2022-11-11T01:40:18;6.60;99.90
40758;DHT22;26462;47.384;19.218;2022-11-11T01:48:46;6.50;99.90
40758;DHT22;26462;47.384;19.218;2022-11-11T01:55:08;6.40;99.90
40758;DHT22;26462;47.384;19.218;2022-11-11T01:58:04;6.40;99.90
40758;DHT22;26462;47.384;19.218;2022-11-11T02:00:51;6.40;99.90
40758;DHT22;26462;47.384;19.218;2022-11-11T02:03:41;6.40;99.90
40758;DHT22;26462;47.384;19.218;2022-11-11T02:06:53;6.40;99.90
40758;DHT22;26462;47.384;19.218;2022-11-11T02:09:44;6.40;99.90
40758;DHT22;26462;47.384;19.218;2022-11-11T02:12:31;6.30;99.90
40758;DHT22;26462;47.384;19.218;2022-11-11T02:15:36;6.30;99.90
40758;DHT22;26462;47.384;19.218;2022-11-11T02:18:22;6.30;99.90
40758;DHT22;26462;47.384;19.218;2022-11-11T02:21:13;6.20;99.90
40758;DHT22;26462;47.384;19.218;2022-11-11T02:24:13;6.20;99.90
40758;DHT22;26462;47.384;19.218;2022-11-11T02:27:01;6.20;99.90
40758;DHT22;26462;47.384;19.218;2022-11-11T02:29:49;6.20;99.90
40758;DHT22;26462;47.384;19.218;2022-11-11T02:32:35;6.20;99.90
40758;DHT22;26462;47.384;19.218;2022-11-11T02:35:24;6.20;99.90
40758;DHT22;26462;47.384;19.218;2022-11-11T02:38:14;6.20;99.90
40758;DHT22;26462;47.384;19.218;2022-11-11T02:40:59;6.20;99.90
40758;DHT22;26462;47.384;19.218;2022-11-11T02:44:04;6.20;99.90
40758;DHT22;26462;47.384;19.218;2022-11-11T02:46:50;6.10;99.90
40758;DHT22;26462;47.384;19.218;2022-11-11T02:49:35;6.10;99.90
40758;DHT22;26462;47.384;19.218;2022-11-11T02:52:21;6.10;99.90
40758;DHT22;26462;47.384;19.218;2022-11-11T02:55:08;6.20;99.90
40758;DHT22;26462;47.384;19.218;2022-11-11T02:57:54;6.10;99.90
40758;DHT22;26462;47.384;19.218;2022-11-11T03:00:40;6.00;99.90
40758;DHT22;26462;47.384;19.218;2022-11-11T03:03:26;6.00;99.90
40758;DHT22;26462;47.384;19.218;2022-11-11T03:06:13;6.00;99.90
40758;DHT22;26462;47.384;19.218;2022-11-11T03:08:59;6.00;99.90
40758;DHT22;26462;47.384;19.218;2022-11-11T03:11:45;6.00;99.90
40758;DHT22;26462;47.384;19.218;2022-11-11T03:14:30;6.00;99.90
40758;DHT22;26462;47.384;19.218;2022-11-11T03:17:16;5.90;99.90
40758;DHT22;26462;47.384;19.218;2022-11-11T03:20:20;5.90;99.90
40758;DHT22;26462;47.384;19.218;2022-11-11T03:23:24;5.90;99.90
40758;DHT22;26462;47.384;19.218;2022-11-11T03:26:09;5.90;99.90
40758;DHT22;26462;47.384;19.218;2022-11-11T03:28:55;5.90;99.90
40758;DHT22;26462;47.384;19.218;2022-11-11T03:31:41;5.80;99.90
40758;DHT22;26462;47.384;19.218;2022-11-11T03:34:27;5.80;99.90
40758;DHT22;26462;47.384;19.218;2022-11-11T03:37:13;5.80;99.90
40758;DHT22;26462;47.384;19.218;2022-11-11T03:40:17;5.80;99.90
40758;DHT22;26462;47.384;19.218;2022-11-11T03:43:02;5.80;99.90
40758;DHT22;26462;47.384;19.218;2022-11-11T03:45:51;5.80;99.90
40758;DHT22;26462;47.384;19.218;2022-11-11T03:48:37;5.70;99.90
40758;DHT22;26462;47.384;19.218;2022-11-11T03:51:23;5.70;99.90
40758;DHT22;26462;47.384;19.218;2022-11-11T03:54:09;5.70;99.90
40758;DHT22;26462;47.384;19.218;2022-11-11T03:56:54;5.70;99.90
40758;DHT22;26462;47.384;19.218;2022-11-11T04:00:03;5.70;99.90
40758;DHT22;26462;47.384;19.218;2022-11-11T04:03:07;5.70;99.90
40758;DHT22;26462;47.384;19.218;2022-11-11T04:06:13;5.70;99.90
40758;DHT22;26462;47.384;19.218;2022-11-11T04:09:17;5.60;99.90
40758;DHT22;26462;47.384;19.218;2022-11-11T04:12:21;5.60;99.90
40758;DHT22;26462;47.384;19.218;2022-11-11T04:15:07;5.60;99.90
40758;DHT22;26462;47.384;19.218;2022-11-11T04:18:12;5.60;99.90
40758;DHT22;26462;47.384;19.218;2022-11-11T04:20:57;5.60;99.90
40758;DHT22;26462;47.384;19.218;2022-11-11T04:24:02;5.60;99.90
40758;DHT22;26462;47.384;19.218;2022-11-11T04:26:47;5.50;99.90
40758;DHT22;26462;47.384;19.218;2022-11-11T04:29:34;5.60;99.90
40758;DHT22;26462;47.384;19.218;2022-11-11T04:32:21;5.50;99.90
40758;DHT22;26462;47.384;19.218;2022-11-11T04:35:25;5.50;99.90
40758;DHT22;26462;47.384;19.218;2022-11-11T04:38:11;5.50;99.90
40758;DHT22;26462;47.384;19.218;2022-11-11T04:41:15;5.50;99.90
40758;DHT22;26462;47.384;19.218;2022-11-11T04:44:01;5.40;99.90
40758;DHT22;26462;47.384;19.218;2022-11-11T04:47:06;5.40;99.90
40758;DHT22;26462;47.384;19.218;2022-11-11T04:49:52;5.40;99.90
40758;DHT22;26462;47.384;19.218;2022-11-11T04:52:37;5.40;99.90
40758;DHT22;26462;47.384;19.218;2022-11-11T04:55:23;5.30;99.90
40758;DHT22;26462;47.384;19.218;2022-11-11T04:58:30;5.30;99.90
40758;DHT22;26462;47.384;19.218;2022-11-11T05:01:16;5.30;99.90
40758;DHT22;26462;47.384;19.218;2022-11-11T05:04:22;5.30;99.90
40758;DHT22;26462;47.384;19.218;2022-11-11T05:07:07;5.20;99.90
40758;DHT22;26462;47.384;19.218;2022-11-11T05:10:12;5.30;99.90
40758;DHT22;26462;47.384;19.218;2022-11-11T05:12:57;5.20;99.90
40758;DHT22;26462;47.384;19.218;2022-11-11T05:16:14;5.20;99.90
40758;DHT22;26462;47.384;19.218;2022-11-11T05:19:19;5.20;99.90
40758;DHT22;26462;47.384;19.218;2022-11-11T05:22:30;5.20;99.90
40758;DHT22;26462;47.384;19.218;2022-11-11T05:25:16;5.20;99.90
40758;DHT22;26462;47.384;19.218;2022-11-11T05:28:10;5.10;99.90
40758;DHT22;26462;47.384;19.218;2022-11-11T05:30:56;5.10;99.90
40758;DHT22;26462;47.384;19.218;2022-11-11T05:33:42;5.10;99.90
40758;DHT22;26462;47.384;19.218;2022-11-11T05:36:27;5.10;99.90
40758;DHT22;26462;47.384;19.218;2022-11-11T05:39:13;5.10;99.90
40758;DHT22;26462;47.384;19.218;2022-11-11T05:41:58;5.10;99.90
40758;DHT22;26462;47.384;19.218;2022-11-11T05:44:44;5.00;99.90
40758;DHT22;26462;47.384;19.218;2022-11-11T05:47:30;5.00;99.90
40758;DHT22;26462;47.384;19.218;2022-11-11T05:50:15;5.00;99.90
40758;DHT22;26462;47.384;19.218;2022-11-11T05:53:01;5.10;99.90
40758;DHT22;26462;47.384;19.218;2022-11-11T05:55:49;5.00;99.90
40758;DHT22;26462;47.384;19.218;2022-11-11T05:58:34;5.10;99.90
40758;DHT22;26462;47.384;19.218;2022-11-11T06:01:20;5.00;99.90
40758;DHT22;26462;47.384;19.218;2022-11-11T06:04:06;5.00;99.90
40758;DHT22;26462;47.384;19.218;2022-11-11T06:06:51;5.00;99.90
40758;DHT22;26462;47.384;19.218;2022-11-11T06:09:37;5.00;99.90
40758;DHT22;26462;47.384;19.218;2022-11-11T06:12:23;5.00;99.90
40758;DHT22;26462;47.384;19.218;2022-11-11T06:15:09;5.00;99.90
40758;DHT22;26462;47.384;19.218;2022-11-11T06:17:54;5.00;99.90
40758;DHT22;26462;47.384;19.218;2022-11-11T06:20:40;5.00;99.90
40758;DHT22;26462;47.384;19.218;2022-11-11T06:23:26;5.00;99.90
40758;DHT22;26462;47.384;19.218;2022-11-11T06:26:13;5.00;99.90
40758;DHT22;26462;47.384;19.218;2022-11-11T06:28:59;5.10;99.90
40758;DHT22;26462;47.384;19.218;2022-11-11T06:31:45;5.20;99.90
40758;DHT22;26462;47.384;19.218;2022-11-11T06:34:30;5.20;99.90
40758;DHT22;26462;47.384;19.218;2022-11-11T06:37:16;5.30;99.90
40758;DHT22;26462;47.384;19.218;2022-11-11T06:40:01;5.30;99.90
40758;DHT22;26462;47.384;19.218;2022-11-11T06:42:48;5.30;99.90
40758;DHT22;26462;47.384;19.218;2022-11-11T06:45:34;5.40;99.90
40758;DHT22;26462;47.384;19.218;2022-11-11T06:48:22;5.40;99.90
40758;DHT22;26462;47.384;19.218;2022-11-11T06:51:08;5.50;99.90
40758;DHT22;26462;47.384;19.218;2022-11-11T06:53:55;5.60;99.90
40758;DHT22;26462;47.384;19.218;2022-11-11T06:56:41;5.70;99.90
40758;DHT22;26462;47.384;19.218;2022-11-11T06:59:26;5.80;99.90
40758;DHT22;26462;47.384;19.218;2022-11-11T07:02:12;5.80;99.90
40758;DHT22;26462;47.384;19.218;2022-11-11T07:04:59;5.90;99.90
40758;DHT22;26462;47.384;19.218;2022-11-11T07:07:45;6.00;99.90
40758;DHT22;26462;47.384;19.218;2022-11-11T07:10:34;6.10;99.90
40758;DHT22;26462;47.384;19.218;2022-11-11T07:13:20;6.20;99.90
40758;DHT22;26462;47.384;19.218;2022-11-11T07:16:06;6.30;99.90
40758;DHT22;26462;47.384;19.218;2022-11-11T07:18:52;6.30;99.90
40758;DHT22;26462;47.384;19.218;2022-11-11T07:21:37;6.40;99.90
40758;DHT22;26462;47.384;19.218;2022-11-11T07:24:23;6.50;99.90
40758;DHT22;26462;47.384;19.218;2022-11-11T07:27:08;6.50;99.90
40758;DHT22;26462;47.384;19.218;2022-11-11T07:29:54;6.60;99.90
40758;DHT22;26462;47.384;19.218;2022-11-11T07:32:47;6.70;99.90
40758;DHT22;26462;47.384;19.218;2022-11-11T07:35:33;6.70;99.90
40758;DHT22;26462;47.384;19.218;2022-11-11T07:38:19;6.80;99.90
40758;DHT22;26462;47.384;19.218;2022-11-11T07:41:04;6.90;99.90
40758;DHT22;26462;47.384;19.218;2022-11-11T07:43:50;7.00;99.90
40758;DHT22;26462;47.384;19.218;2022-11-11T07:46:36;7.10;99.90
40758;DHT22;26462;47.384;19.218;2022-11-11T07:49:21;7.10;99.90
40758;DHT22;26462;47.384;19.218;2022-11-11T07:52:07;7.20;99.90
40758;DHT22;26462;47.384;19.218;2022-11-11T07:54:52;7.30;99.90
40758;DHT22;26462;47.384;19.218;2022-11-11T07:57:39;7.40;99.90
40758;DHT22;26462;47.384;19.218;2022-11-11T08:00:24;7.40;99.90
40758;DHT22;26462;47.384;19.218;2022-11-11T08:03:10;7.50;99.90
40758;DHT22;26462;47.384;19.218;2022-11-11T08:05:56;7.60;99.90
40758;DHT22;26462;47.384;19.218;2022-11-11T08:08:42;7.70;99.90
40758;DHT22;26462;47.384;19.218;2022-11-11T08:11:27;7.80;99.90
40758;DHT22;26462;47.384;19.218;2022-11-11T08:14:31;7.90;99.90
40758;DHT22;26462;47.384;19.218;2022-11-11T08:17:17;8.00;99.90
40758;DHT22;26462;47.384;19.218;2022-11-11T08:20:03;8.10;99.90
40758;DHT22;26462;47.384;19.218;2022-11-11T08:22:49;8.00;99.90
40758;DHT22;26462;47.384;19.218;2022-11-11T08:26:00;8.10;99.90
40758;DHT22;26462;47.384;19.218;2022-11-11T08:28:46;8.30;99.90
40758;DHT22;26462;47.384;19.218;2022-11-11T08:31:32;8.40;99.90
40758;DHT22;26462;47.384;19.218;2022-11-11T08:34:19;8.60;99.90
40758;DHT22;26462;47.384;19.218;2022-11-11T08:37:05;8.60;99.90
40758;DHT22;26462;47.384;19.218;2022-11-11T08:39:51;8.70;99.90
40758;DHT22;26462;47.384;19.218;2022-11-11T08:42:37;8.80;99.90
40758;DHT22;26462;47.384;19.218;2022-11-11T08:45:24;8.90;99.90
40758;DHT22;26462;47.384;19.218;2022-11-11T08:48:10;9.00;99.90
40758;DHT22;26462;47.384;19.218;2022-11-11T08:50:56;9.10;99.90
40758;DHT22;26462;47.384;19.218;2022-11-11T08:53:42;9.20;99.90
40758;DHT22;26462;47.384;19.218;2022-11-11T08:56:27;9.30;99.90
40758;DHT22;26462;47.384;19.218;2022-11-11T08:59:13;9.40;99.90
40758;DHT22;26462;47.384;19.218;2022-11-11T09:01:58;9.50;99.90
40758;DHT22;26462;47.384;19.218;2022-11-11T09:04:44;9.50;99.90
40758;DHT22;26462;47.384;19.218;2022-11-11T09:07:33;9.60;99.90
40758;DHT22;26462;47.384;19.218;2022-11-11T09:10:19;9.70;99.90
40758;DHT22;26462;47.384;19.218;2022-11-11T09:13:05;9.90;99.90
40758;DHT22;26462;47.384;19.218;2022-11-11T09:15:53;10.00;99.90
40758;DHT22;26462;47.384;19.218;2022-11-11T09:18:38;10.20;99.90
40758;DHT22;26462;47.384;19.218;2022-11-11T09:21:24;10.30;99.90
40758;DHT22;26462;47.384;19.218;2022-11-11T09:24:10;10.50;99.90
40758;DHT22;26462;47.384;19.218;2022-11-11T09:26:56;10.80;99.90
40758;DHT22;26462;47.384;19.218;2022-11-11T09:29:42;11.00;99.90
40758;DHT22;26462;47.384;19.218;2022-11-11T09:32:28;11.20;99.90
40758;DHT22;26462;47.384;19.218;2022-11-11T09:35:14;11.30;99.90
40758;DHT22;26462;47.384;19.218;2022-11-11T09:38:01;11.30;99.90
40758;DHT22;26462;47.384;19.218;2022-11-11T09:43:59;11.50;99.90
40758;DHT22;26462;47.384;19.218;2022-11-11T09:47:13;11.40;99.90
40758;DHT22;26462;47.384;19.218;2022-11-11T09:55:55;11.40;99.90
40758;DHT22;26462;47.384;19.218;2022-11-11T09:58:47;11.20;99.90
40758;DHT22;26462;47.384;19.218;2022-11-11T10:02:00;11.30;99.90
40758;DHT22;26462;47.384;19.218;2022-11-11T10:05:07;11.50;99.90
40758;DHT22;26462;47.384;19.218;2022-11-11T10:08:03;11.50;99.90
40758;DHT22;26462;47.384;19.218;2022-11-11T10:10:53;11.70;99.90
40758;DHT22;26462;47.384;19.218;2022-11-11T10:13:39;11.60;99.90
40758;DHT22;26462;47.384;19.218;2022-11-11T10:19:58;11.70;99.90
40758;DHT22;26462;47.384;19.218;2022-11-11T10:22:49;11.70;99.90
40758;DHT22;26462;47.384;19.218;2022-11-11T10:25:42;11.80;99.90
40758;DHT22;26462;47.384;19.218;2022-11-11T10:28:31;11.90;99.90
40758;DHT22;26462;47.384;19.218;2022-11-11T10:31:21;11.90;99.90
40758;DHT22;26462;47.384;19.218;2022-11-11T10:34:12;12.10;99.90
40758;DHT22;26462;47.384;19.218;2022-11-11T10:36:59;12.10;99.90
40758;DHT22;26462;47.384;19.218;2022-11-11T10:42:40;12.10;99.90
40758;DHT22;26462;47.384;19.218;2022-11-11T10:51:45;12.50;99.90
40758;DHT22;26462;47.384;19.218;2022-11-11T10:54:40;12.50;99.90
40758;DHT22;26462;47.384;19.218;2022-11-11T11:00:26;12.70;99.90
40758;DHT22;26462;47.384;19.218;2022-11-11T11:03:27;12.70;99.90
40758;DHT22;26462;47.384;19.218;2022-11-11T11:06:23;12.80;99.90
40758;DHT22;26462;47.384;19.218;2022-11-11T11:09:21;12.90;99.30
40758;DHT22;26462;47.384;19.218;2022-11-11T11:15:26;12.80;99.00
40758;DHT22;26462;47.384;19.218;2022-11-11T11:18:14;12.80;99.40
40758;DHT22;26462;47.384;19.218;2022-11-11T11:21:03;12.80;98.50
40758;DHT22;26462;47.384;19.218;2022-11-11T11:23:49;12.80;99.60
40758;DHT22;26462;47.384;19.218;2022-11-11T11:26:50;12.70;99.70
40758;DHT22;26462;47.384;19.218;2022-11-11T11:29:42;12.70;99.90
40758;DHT22;26462;47.384;19.218;2022-11-11T11:32:31;12.70;99.90
40758;DHT22;26462;47.384;19.218;2022-11-11T11:35:37;12.70;99.90
40758;DHT22;26462;47.384;19.218;2022-11-11T11:38:39;12.70;99.90
40758;DHT22;26462;47.384;19.218;2022-11-11T11:44:33;12.70;99.90
40758;DHT22;26462;47.384;19.218;2022-11-11T11:47:33;12.70;99.90
40758;DHT22;26462;47.384;19.218;2022-11-11T12:00:50;12.60;99.90
40758;DHT22;26462;47.384;19.218;2022-11-11T12:07:55;12.50;99.90
40758;DHT22;26462;47.384;19.218;2022-11-11T12:13:24;12.60;99.90
40758;DHT22;26462;47.384;19.218;2022-11-11T12:19:55;12.60;99.90
40758;DHT22;26462;47.384;19.218;2022-11-11T12:28:42;12.70;99.90
40758;DHT22;26462;47.384;19.218;2022-11-11T12:40:51;12.80;99.90
40758;DHT22;26462;47.384;19.218;2022-11-11T12:46:53;12.60;99.90
40758;DHT22;26462;47.384;19.218;2022-11-11T12:52:54;12.60;99.90
40758;DHT22;26462;47.384;19.218;2022-11-11T13:05:03;12.90;99.90
40758;DHT22;26462;47.384;19.218;2022-11-11T13:08:05;13.00;99.90
40758;DHT22;26462;47.384;19.218;2022-11-11T13:11:13;13.00;99.90
40758;DHT22;26462;47.384;19.218;2022-11-11T13:14:30;13.00;99.90
40758;DHT22;26462;47.384;19.218;2022-11-11T13:17:20;13.00;99.90
40758;DHT22;26462;47.384;19.218;2022-11-11T13:23:14;13.10;99.90
40758;DHT22;26462;47.384;19.218;2022-11-11T13:26:03;13.10;99.90
40758;DHT22;26462;47.384;19.218;2022-11-11T13:29:00;13.10;99.90
40758;DHT22;26462;47.384;19.218;2022-11-11T13:31:51;13.00;99.90
40758;DHT22;26462;47.384;19.218;2022-11-11T13:34:39;12.90;99.90
40758;DHT22;26462;47.384;19.218;2022-11-11T13:37:28;12.90;99.90
40758;DHT22;26462;47.384;19.218;2022-11-11T13:40:41;12.90;99.90
40758;DHT22;26462;47.384;19.218;2022-11-11T13:43:31;12.80;99.90
40758;DHT22;26462;47.384;19.218;2022-11-11T13:49:24;12.70;99.90
40758;DHT22;26462;47.384;19.218;2022-11-11T13:52:25;12.70;99.90
40758;DHT22;26462;47.384;19.218;2022-11-11T13:55:35;12.60;99.90
40758;DHT22;26462;47.384;19.218;2022-11-11T13:58:29;12.60;99.90
40758;DHT22;26462;47.384;19.218;2022-11-11T14:01:15;12.50;99.90
40758;DHT22;26462;47.384;19.218;2022-11-11T14:04:04;12.50;99.90
40758;DHT22;26462;47.384;19.218;2022-11-11T14:06:52;12.50;99.90
40758;DHT22;26462;47.384;19.218;2022-11-11T14:09:57;12.50;99.90
40758;DHT22;26462;47.384;19.218;2022-11-11T14:12:49;12.40;99.30
40758;DHT22;26462;47.384;19.218;2022-11-11T14:21:10;12.40;97.30
40758;DHT22;26462;47.384;19.218;2022-11-11T14:24:38;12.30;97.00
40758;DHT22;26462;47.384;19.218;2022-11-11T14:27:28;12.30;97.20
40758;DHT22;26462;47.384;19.218;2022-11-11T14:39:51;12.00;98.60
40758;DHT22;26462;47.384;19.218;2022-11-11T14:51:47;11.60;99.90
40758;DHT22;26462;47.384;19.218;2022-11-11T14:57:40;11.50;99.90
40758;DHT22;26462;47.384;19.218;2022-11-11T15:00:30;11.40;99.90
40758;DHT22;26462;47.384;19.218;2022-11-11T15:06:27;11.30;99.90
40758;DHT22;26462;47.384;19.218;2022-11-11T15:12:12;11.20;99.90
40758;DHT22;26462;47.384;19.218;2022-11-11T15:15:30;11.10;99.90
40758;DHT22;26462;47.384;19.218;2022-11-11T15:21:23;10.90;99.90
40758;DHT22;26462;47.384;19.218;2022-11-11T15:30:42;10.60;99.90
40758;DHT22;26462;47.384;19.218;2022-11-11T15:33:45;10.50;99.90
40758;DHT22;26462;47.384;19.218;2022-11-11T15:37:00;10.40;99.90
40758;DHT22;26462;47.384;19.218;2022-11-11T15:39:51;10.40;99.90
40758;DHT22;26462;47.384;19.218;2022-11-11T15:42:43;10.30;99.90
40758;DHT22;26462;47.384;19.218;2022-11-11T15:45:34;10.30;99.90
40758;DHT22;26462;47.384;19.218;2022-11-11T15:48:28;10.20;99.90
40758;DHT22;26462;47.384;19.218;2022-11-11T15:51:16;10.20;99.90
40758;DHT22;26462;47.384;19.218;2022-11-11T15:56:55;10.00;99.90
40758;DHT22;26462;47.384;19.218;2022-11-11T15:59:41;10.00;99.90
40758;DHT22;26462;47.384;19.218;2022-11-11T16:02:32;9.90;99.90
40758;DHT22;26462;47.384;19.218;2022-11-11T16:05:22;9.90;99.90
40758;DHT22;26462;47.384;19.218;2022-11-11T16:08:08;9.90;99.90
40758;DHT22;26462;47.384;19.218;2022-11-11T16:11:00;9.80;99.90
40758;DHT22;26462;47.384;19.218;2022-11-11T16:13:58;9.80;99.90
40758;DHT22;26462;47.384;19.218;2022-11-11T16:16:52;9.70;99.90
40758;DHT22;26462;47.384;19.218;2022-11-11T16:19:42;9.70;99.90
40758;DHT22;26462;47.384;19.218;2022-11-11T16:22:35;9.70;99.90
40758;DHT22;26462;47.384;19.218;2022-11-11T16:25:22;9.60;99.90
40758;DHT22;26462;47.384;19.218;2022-11-11T16:28:10;9.50;99.90
40758;DHT22;26462;47.384;19.218;2022-11-11T16:30:56;9.50;99.90
40758;DHT22;26462;47.384;19.218;2022-11-11T16:33:42;9.40;99.90
40758;DHT22;26462;47.384;19.218;2022-11-11T16:36:27;9.40;99.90
40758;DHT22;26462;47.384;19.218;2022-11-11T16:39:20;9.40;99.90
40758;DHT22;26462;47.384;19.218;2022-11-11T16:45:18;9.30;99.90
40758;DHT22;26462;47.384;19.218;2022-11-11T16:48:04;9.30;99.90
40758;DHT22;26462;47.384;19.218;2022-11-11T16:50:55;9.30;99.90
40758;DHT22;26462;47.384;19.218;2022-11-11T16:53:54;9.30;99.90
40758;DHT22;26462;47.384;19.218;2022-11-11T16:56:54;9.30;99.90
40758;DHT22;26462;47.384;19.218;2022-11-11T16:59:46;9.30;99.90
40758;DHT22;26462;47.384;19.218;2022-11-11T17:02:34;9.20;99.90
40758;DHT22;26462;47.384;19.218;2022-11-11T17:08:45;9.10;99.90
40758;DHT22;26462;47.384;19.218;2022-11-11T17:11:41;9.10;99.90
40758;DHT22;26462;47.384;19.218;2022-11-11T17:14:28;9.00;99.90
40758;DHT22;26462;47.384;19.218;2022-11-11T17:17:15;9.00;99.90
40758;DHT22;26462;47.384;19.218;2022-11-11T17:20:12;9.00;99.90
40758;DHT22;26462;47.384;19.218;2022-11-11T17:22:58;8.90;99.90
40758;DHT22;26462;47.384;19.218;2022-11-11T17:25:45;8.80;99.90
40758;DHT22;26462;47.384;19.218;2022-11-11T17:28:32;8.80;99.90
40758;DHT22;26462;47.384;19.218;2022-11-11T17:31:19;8.80;99.90
40758;DHT22;26462;47.384;19.218;2022-11-11T17:34:08;8.80;99.90
40758;DHT22;26462;47.384;19.218;2022-11-11T17:36:55;8.70;99.90
40758;DHT22;26462;47.384;19.218;2022-11-11T17:39:40;8.70;99.90
40758;DHT22;26462;47.384;19.218;2022-11-11T17:42:31;8.70;99.90
40758;DHT22;26462;47.384;19.218;2022-11-11T17:45:20;8.60;99.90
40758;DHT22;26462;47.384;19.218;2022-11-11T17:48:07;8.60;99.90
40758;DHT22;26462;47.384;19.218;2022-11-11T17:50:53;8.60;99.90
40758;DHT22;26462;47.384;19.218;2022-11-11T17:53:39;8.50;99.90
40758;DHT22;26462;47.384;19.218;2022-11-11T17:56:25;8.50;99.90
40758;DHT22;26462;47.384;19.218;2022-11-11T17:59:13;8.50;99.90
40758;DHT22;26462;47.384;19.218;2022-11-11T18:02:01;8.40;99.90
40758;DHT22;26462;47.384;19.218;2022-11-11T18:04:48;8.40;99.90
40758;DHT22;26462;47.384;19.218;2022-11-11T18:07:34;8.40;99.90
40758;DHT22;26462;47.384;19.218;2022-11-11T18:10:25;8.30;99.90
40758;DHT22;26462;47.384;19.218;2022-11-11T18:13:12;8.30;99.90
40758;DHT22;26462;47.384;19.218;2022-11-11T18:15:57;8.30;99.90
40758;DHT22;26462;47.384;19.218;2022-11-11T18:18:52;8.30;99.90
40758;DHT22;26462;47.384;19.218;2022-11-11T18:21:39;8.30;99.90
40758;DHT22;26462;47.384;19.218;2022-11-11T18:24:27;8.20;99.90
40758;DHT22;26462;47.384;19.218;2022-11-11T18:27:12;8.20;99.90
40758;DHT22;26462;47.384;19.218;2022-11-11T18:29:58;8.20;99.90
40758;DHT22;26462;47.384;19.218;2022-11-11T18:32:44;8.20;99.90
40758;DHT22;26462;47.384;19.218;2022-11-11T18:35:32;8.20;99.90
40758;DHT22;26462;47.384;19.218;2022-11-11T18:38:18;8.20;99.90
40758;DHT22;26462;47.384;19.218;2022-11-11T18:41:10;8.20;99.90
40758;DHT22;26462;47.384;19.218;2022-11-11T18:43:56;8.20;99.90
40758;DHT22;26462;47.384;19.218;2022-11-11T18:46:43;8.20;99.90
40758;DHT22;26462;47.384;19.218;2022-11-11T18:49:29;8.20;99.90
40758;DHT22;26462;47.384;19.218;2022-11-11T18:52:15;8.20;99.90
40758;DHT22;26462;47.384;19.218;2022-11-11T18:55:01;8.30;99.90
40758;DHT22;26462;47.384;19.218;2022-11-11T18:57:47;8.30;99.90
40758;DHT22;26462;47.384;19.218;2022-11-11T19:00:33;8.30;99.90
40758;DHT22;26462;47.384;19.218;2022-11-11T19:03:20;8.30;99.90
40758;DHT22;26462;47.384;19.218;2022-11-11T19:06:08;8.30;99.90
40758;DHT22;26462;47.384;19.218;2022-11-11T19:08:56;8.30;99.90
40758;DHT22;26462;47.384;19.218;2022-11-11T19:11:44;8.30;99.90
40758;DHT22;26462;47.384;19.218;2022-11-11T19:14:31;8.40;99.90
40758;DHT22;26462;47.384;19.218;2022-11-11T19:17:16;8.30;99.90
40758;DHT22;26462;47.384;19.218;2022-11-11T19:20:02;8.30;99.90
40758;DHT22;26462;47.384;19.218;2022-11-11T19:22:48;8.30;99.90
40758;DHT22;26462;47.384;19.218;2022-11-11T19:25:35;8.30;99.90
40758;DHT22;26462;47.384;19.218;2022-11-11T19:28:22;8.30;99.90
40758;DHT22;26462;47.384;19.218;2022-11-11T19:31:14;8.40;99.90
40758;DHT22;26462;47.384;19.218;2022-11-11T19:34:01;8.30;99.90
40758;DHT22;26462;47.384;19.218;2022-11-11T19:36:47;8.30;99.90
40758;DHT22;26462;47.384;19.218;2022-11-11T19:39:33;8.30;99.90
40758;DHT22;26462;47.384;19.218;2022-11-11T19:42:19;8.30;99.90
40758;DHT22;26462;47.384;19.218;2022-11-11T19:45:05;8.30;99.90
40758;DHT22;26462;47.384;19.218;2022-11-11T19:47:51;8.30;99.90
40758;DHT22;26462;47.384;19.218;2022-11-11T19:50:37;8.20;99.90
40758;DHT22;26462;47.384;19.218;2022-11-11T19:53:23;8.20;99.90
40758;DHT22;26462;47.384;19.218;2022-11-11T19:56:12;8.20;99.90
40758;DHT22;26462;47.384;19.218;2022-11-11T19:58:59;8.20;99.90
40758;DHT22;26462;47.384;19.218;2022-11-11T20:01:47;8.20;99.90
40758;DHT22;26462;47.384;19.218;2022-11-11T20:04:33;8.20;99.90
40758;DHT22;26462;47.384;19.218;2022-11-11T20:07:19;8.20;99.90
40758;DHT22;26462;47.384;19.218;2022-11-11T20:10:06;8.10;99.90
40758;DHT22;26462;47.384;19.218;2022-11-11T20:12:53;8.10;99.90
40758;DHT22;26462;47.384;19.218;2022-11-11T20:15:39;8.10;99.90
40758;DHT22;26462;47.384;19.218;2022-11-11T20:18:25;8.10;99.90
40758;DHT22;26462;47.384;19.218;2022-11-11T20:21:12;8.10;99.90